Allouez, Michigan
Current Conditions -  °F | °C
As of 11:53 AM on Tuesday 27 Jan 2015 (Local Time) from KCMX Reporting Station
Clear Clear  
Wind Chill: 13°   Ceiling: Unl
Heat Index: 21°   Visibility: 10mi
Dew Point: 16°   Wind: 6mph
Humidity: 81%   Direction: 170°S
Pressure: 30.16"   Gusts: NA
Location:  47.29°N, 88.41°W
Report Text: KCMX 271653Z AUTO 17005KT 10SM CLR M06/M09 A3016 RMK AO2 SLP233 P0023 T10611089
Loading
Personal Weather Stations






























Interactive Weather Map New forecast layout! Learn more

10-Day Weather Forecast

Advertisements
Track Severe Weather on mobile